Time;durP1;ratioP1;P1;durP2;ratioP2;P2;SDS_P1;SDS_P2;PMS_P1;PMS_P2;Temp;Humidity;BMP_temperature;BMP_pressure;BME280_temperature;BME280_humidity;BME280_pressure;Samples;Min_cycle;Max_cycle;Signal;HPM_P1;HPM_P2
2022/03/03 00:01:54;;;;;;;10.77;4.90;;;5.80;52.10;;;;;;4987164;28;20030;-87
2022/03/03 00:04:20;;;;;;;8.82;4.72;;;5.80;52.20;;;;;;5014466;28;20038;-88
2022/03/03 00:06:46;;;;;;;8.13;4.30;;;5.70;52.40;;;;;;4987040;28;20030;-88
2022/03/03 00:09:11;;;;;;;7.57;4.13;;;5.70;52.50;;;;;;5000241;28;20033;-88
2022/03/03 00:11:38;;;;;;;8.53;4.87;;;5.60;52.60;;;;;;4992197;28;20500;-88
2022/03/03 00:14:04;;;;;;;9.52;4.60;;;5.60;52.80;;;;;;4998572;28;20099;-88
2022/03/03 00:16:30;;;;;;;8.30;4.57;;;5.50;52.90;;;;;;5001068;28;20100;-88
2022/03/03 00:18:56;;;;;;;9.03;4.70;;;5.50;53.00;;;;;;5002111;28;20037;-88
2022/03/03 00:21:22;;;;;;;10.68;5.25;;;5.40;53.10;;;;;;5004901;28;20402;-88
2022/03/03 00:23:48;;;;;;;10.38;5.07;;;5.40;53.10;;;;;;5016432;28;20431;-88
2022/03/03 00:26:13;;;;;;;9.73;5.30;;;5.30;53.10;;;;;;5006373;28;20216;-88
2022/03/03 00:28:39;;;;;;;10.17;5.10;;;5.30;53.30;;;;;;5019626;28;20288;-88
2022/03/03 00:31:05;;;;;;;9.10;5.07;;;5.20;53.40;;;;;;5016918;28;20128;-88
2022/03/03 00:33:31;;;;;;;9.30;5.33;;;5.20;53.40;;;;;;5007717;28;20025;-88
2022/03/03 00:35:56;;;;;;;8.82;4.90;;;5.10;53.50;;;;;;4996235;28;20433;-88
2022/03/03 00:38:22;;;;;;;9.67;5.23;;;5.10;53.60;;;;;;5014819;28;20029;-88
2022/03/03 00:40:48;;;;;;;8.75;5.10;;;5.10;53.70;;;;;;5017165;28;20029;-88
2022/03/03 00:43:14;;;;;;;9.60;5.00;;;5.10;53.80;;;;;;5009919;28;20222;-88
2022/03/03 00:45:40;;;;;;;8.23;4.97;;;5.00;53.80;;;;;;4998056;28;20029;-88
2022/03/03 00:48:06;;;;;;;8.77;4.85;;;5.00;53.90;;;;;;5000395;28;20029;-88
2022/03/03 00:50:32;;;;;;;10.63;5.32;;;5.00;54.00;;;;;;4987092;28;20757;-88
2022/03/03 00:52:57;;;;;;;9.25;5.15;;;4.90;54.00;;;;;;4991351;28;20234;-88
2022/03/03 00:55:23;;;;;;;8.10;4.70;;;4.90;54.00;;;;;;5012471;28;20497;-88
2022/03/03 00:57:49;;;;;;;9.27;5.00;;;4.90;54.10;;;;;;4989569;28;20076;-88
2022/03/03 01:00:15;;;;;;;8.77;4.93;;;4.90;54.20;;;;;;5004249;28;20787;-88
2022/03/03 01:02:41;;;;;;;9.48;4.72;;;4.80;54.20;;;;;;5018857;28;20394;-88
2022/03/03 01:05:08;;;;;;;10.15;5.10;;;4.80;54.20;;;;;;4984243;28;20046;-88
2022/03/03 01:07:34;;;;;;;8.85;4.63;;;4.80;54.40;;;;;;5019969;28;20564;-88
2022/03/03 01:10:00;;;;;;;8.30;4.80;;;4.70;54.40;;;;;;4982238;28;20182;-88
2022/03/03 01:12:25;;;;;;;11.80;5.30;;;4.70;54.60;;;;;;5018163;28;20042;-88
2022/03/03 01:14:51;;;;;;;9.80;5.30;;;4.70;54.60;;;;;;4985126;28;20398;-88
2022/03/03 01:17:17;;;;;;;11.03;5.30;;;4.60;54.60;;;;;;5010602;28;20026;-88
2022/03/03 01:19:43;;;;;;;11.48;5.53;;;4.60;54.60;;;;;;4984624;28;20061;-88
2022/03/03 01:22:09;;;;;;;10.13;5.30;;;4.60;54.80;;;;;;5000663;28;20053;-88
2022/03/03 01:24:35;;;;;;;9.57;5.53;;;4.50;54.70;;;;;;4990128;28;20413;-88
2022/03/03 01:27:01;;;;;;;9.65;5.40;;;4.50;54.60;;;;;;4999040;28;20158;-88
2022/03/03 01:29:27;;;;;;;10.23;5.10;;;4.50;54.80;;;;;;4990568;28;20021;-88
2022/03/03 01:31:53;;;;;;;9.77;5.10;;;4.40;54.90;;;;;;5015701;28;20087;-88
2022/03/03 01:34:18;;;;;;;9.13;5.40;;;4.40;55.00;;;;;;4983258;28;20593;-88
2022/03/03 01:36:44;;;;;;;8.82;5.28;;;4.40;55.10;;;;;;4997282;28;20394;-88
2022/03/03 01:39:10;;;;;;;9.93;5.23;;;4.40;55.20;;;;;;4992839;28;20041;-88
2022/03/03 01:41:38;;;;;;;9.43;5.13;;;4.30;55.30;;;;;;5007019;28;20045;-88
2022/03/03 01:44:04;;;;;;;8.90;5.28;;;4.30;55.40;;;;;;4999644;28;20318;-88
2022/03/03 01:46:30;;;;;;;9.02;5.10;;;4.30;55.40;;;;;;4999633;28;20025;-88
2022/03/03 01:48:56;;;;;;;9.70;5.30;;;4.20;55.40;;;;;;4998744;28;20384;-88
2022/03/03 01:51:22;;;;;;;10.47;5.70;;;4.20;55.40;;;;;;4998208;28;20531;-88
2022/03/03 01:53:47;;;;;;;8.93;5.47;;;4.20;55.50;;;;;;5012796;28;20026;-88
2022/03/03 01:56:13;;;;;;;9.53;5.27;;;4.20;55.60;;;;;;5010839;28;20318;-87
2022/03/03 01:58:40;;;;;;;10.13;5.60;;;4.10;55.60;;;;;;4992588;28;20382;-87
2022/03/03 02:01:06;;;;;;;11.55;5.63;;;4.10;55.70;;;;;;5015321;28;20030;-87
2022/03/03 02:03:32;;;;;;;8.50;5.03;;;4.10;55.90;;;;;;5000993;28;20034;-87
2022/03/03 02:05:58;;;;;;;10.90;5.47;;;4.00;55.90;;;;;;4982950;28;20173;-87
2022/03/03 02:08:24;;;;;;;10.20;5.72;;;4.00;55.90;;;;;;4995428;28;20470;-88
2022/03/03 02:10:53;;;;;;;9.70;5.28;;;4.00;56.10;;;;;;4993255;28;20184;-88
2022/03/03 02:13:19;;;;;;;10.55;5.40;;;4.00;56.30;;;;;;5001588;28;20387;-88
2022/03/03 02:15:55;;;;;;;9.07;5.47;;;4.00;56.20;;;;;;5005680;28;20520;-87
2022/03/03 02:18:21;;;;;;;9.82;5.45;;;4.00;56.70;;;;;;4994527;28;20134;-88
2022/03/03 02:20:47;;;;;;;9.77;5.78;;;4.10;57.00;;;;;;4991944;28;20160;-88
2022/03/03 02:23:14;;;;;;;11.60;5.72;;;4.00;56.30;;;;;;5009452;28;20413;-87
2022/03/03 02:25:40;;;;;;;10.77;5.47;;;4.00;56.30;;;;;;5017767;28;20036;-87
2022/03/03 02:28:06;;;;;;;9.87;5.50;;;4.00;56.30;;;;;;4991679;28;20049;-87
2022/03/03 02:30:32;;;;;;;9.85;5.15;;;4.10;56.40;;;;;;5008174;28;20029;-87
2022/03/03 02:32:58;;;;;;;10.07;5.45;;;4.00;56.20;;;;;;4997743;28;20143;-87
2022/03/03 02:35:24;;;;;;;11.37;5.70;;;4.00;56.30;;;;;;5001217;28;20030;-87
2022/03/03 02:37:49;;;;;;;10.73;5.20;;;4.00;56.30;;;;;;4978989;28;20088;-88
2022/03/03 02:40:20;;;;;;;9.35;5.35;;;4.00;56.30;;;;;;4997749;28;20037;-88
2022/03/03 02:42:52;;;;;;;10.03;5.43;;;4.10;56.60;;;;;;5009730;28;20044;-87
2022/03/03 02:45:18;;;;;;;9.05;5.20;;;4.00;56.70;;;;;;5008900;28;20026;-87
2022/03/03 02:47:47;;;;;;;8.23;4.80;;;4.10;56.50;;;;;;5001734;28;20420;-87
2022/03/03 02:50:15;;;;;;;9.23;5.20;;;4.00;56.40;;;;;;5003764;28;20708;-88
2022/03/03 02:52:41;;;;;;;9.20;4.90;;;4.10;56.60;;;;;;5005488;28;20036;-88
2022/03/03 02:55:08;;;;;;;8.70;4.45;;;4.10;56.50;;;;;;5002105;28;20018;-88
2022/03/03 03:00:18;;;;;;;8.70;4.90;;;4.10;56.60;;;;;;5010364;28;20095;-88
2022/03/03 03:02:44;;;;;;;8.98;5.00;;;4.10;56.60;;;;;;4997716;28;20018;-88
2022/03/03 03:05:10;;;;;;;9.10;5.20;;;4.10;56.50;;;;;;5002906;28;20134;-88
2022/03/03 03:07:36;;;;;;;7.83;4.90;;;4.00;56.50;;;;;;5021805;28;20060;-87
2022/03/03 03:10:03;;;;;;;10.77;5.25;;;4.00;56.60;;;;;;5002570;28;20524;-88
2022/03/03 03:12:29;;;;;;;8.27;4.85;;;4.00;56.80;;;;;;5010882;28;20042;-88
2022/03/03 03:14:55;;;;;;;8.90;4.70;;;4.00;56.80;;;;;;5001590;28;20086;-88
2022/03/03 03:17:20;;;;;;;8.82;4.88;;;4.00;56.80;;;;;;4995897;28;20033;-88
2022/03/03 03:19:46;;;;;;;9.27;5.23;;;3.90;56.80;;;;;;5019483;28;20028;-88
2022/03/03 03:22:12;;;;;;;8.93;4.82;;;3.90;56.80;;;;;;5000681;28;20239;-88
2022/03/03 03:24:37;;;;;;;8.50;4.90;;;3.90;56.90;;;;;;4984396;28;20502;-88
2022/03/03 03:27:03;;;;;;;8.60;4.95;;;3.90;57.00;;;;;;5006477;28;20498;-88
2022/03/03 03:29:28;;;;;;;8.27;4.40;;;3.80;56.90;;;;;;5001147;28;20041;-88
2022/03/03 03:31:54;;;;;;;7.90;4.93;;;3.80;57.00;;;;;;5009975;28;20136;-88
2022/03/03 03:34:20;;;;;;;8.63;4.78;;;3.80;57.10;;;;;;5029584;28;20404;-88
2022/03/03 03:36:45;;;;;;;11.37;5.37;;;3.80;57.20;;;;;;4999699;28;20092;-88
2022/03/03 03:39:11;;;;;;;9.60;5.05;;;3.70;57.20;;;;;;5003513;28;20341;-88
2022/03/03 03:41:37;;;;;;;9.37;4.73;;;3.70;57.30;;;;;;4986546;28;20057;-88
2022/03/03 03:44:02;;;;;;;8.80;4.82;;;3.70;57.40;;;;;;4993651;28;20112;-88
2022/03/03 03:46:28;;;;;;;9.20;4.57;;;3.60;57.40;;;;;;5021911;28;20040;-88
2022/03/03 03:48:54;;;;;;;7.60;4.20;;;3.60;57.30;;;;;;5004369;28;20055;-87
2022/03/03 03:51:19;;;;;;;9.10;4.73;;;3.60;57.20;;;;;;5000919;28;20029;-87
2022/03/03 03:53:45;;;;;;;8.82;4.53;;;3.60;57.30;;;;;;5002862;28;20080;-88
2022/03/03 03:56:11;;;;;;;8.80;4.30;;;3.60;57.30;;;;;;4976814;28;20183;-87
2022/03/03 03:58:36;;;;;;;8.97;4.50;;;3.50;57.20;;;;;;4992372;28;20482;-87
2022/03/03 04:01:02;;;;;;;7.63;4.32;;;3.50;57.20;;;;;;4999173;28;20098;-87
2022/03/03 04:03:28;;;;;;;9.55;4.70;;;3.50;57.10;;;;;;5000226;28;20030;-87
2022/03/03 04:05:54;;;;;;;8.10;4.40;;;3.60;57.30;;;;;;5008498;28;20608;-88
2022/03/03 04:08:19;;;;;;;8.50;4.30;;;3.60;57.50;;;;;;5001007;28;20033;-88
2022/03/03 04:10:47;;;;;;;8.87;4.23;;;3.60;57.50;;;;;;5008171;28;20036;-88
2022/03/03 04:13:15;;;;;;;8.02;4.38;;;3.60;57.60;;;;;;5004950;28;20540;-87
2022/03/03 04:15:41;;;;;;;6.82;3.75;;;3.60;57.50;;;;;;5002929;28;20542;-87
2022/03/03 04:18:07;;;;;;;7.90;4.50;;;3.60;57.50;;;;;;4999248;28;20229;-87
2022/03/03 04:20:32;;;;;;;7.60;4.20;;;3.60;57.60;;;;;;5011754;28;20500;-87
2022/03/03 04:22:58;;;;;;;7.68;4.35;;;3.60;57.50;;;;;;5016189;28;20178;-87
2022/03/03 04:25:24;;;;;;;7.67;3.97;;;3.60;57.40;;;;;;4997320;28;20478;-87
2022/03/03 04:27:49;;;;;;;8.07;4.10;;;3.60;57.50;;;;;;4980606;28;20100;-88
2022/03/03 04:30:15;;;;;;;7.03;3.70;;;3.60;57.60;;;;;;4999552;28;20293;-88
2022/03/03 04:32:41;;;;;;;8.10;4.03;;;3.60;57.60;;;;;;5021236;28;20040;-88
2022/03/03 04:35:08;;;;;;;8.57;4.30;;;3.60;57.70;;;;;;4991405;28;20060;-88
2022/03/03 04:37:34;;;;;;;8.30;4.05;;;3.60;57.80;;;;;;5018906;28;20037;-88
2022/03/03 04:40:00;;;;;;;7.82;4.15;;;3.60;57.80;;;;;;5015908;28;20564;-88
2022/03/03 04:42:26;;;;;;;8.02;4.32;;;3.50;57.70;;;;;;5001315;28;20093;-88
2022/03/03 04:44:51;;;;;;;8.53;4.10;;;3.50;57.70;;;;;;4995478;28;20529;-88
2022/03/03 04:47:17;;;;;;;7.68;4.07;;;3.50;57.70;;;;;;5018230;28;20021;-88
2022/03/03 04:49:43;;;;;;;8.83;4.40;;;3.50;57.70;;;;;;5002070;28;20061;-88
2022/03/03 04:52:09;;;;;;;9.57;4.40;;;3.40;57.80;;;;;;4989213;28;20026;-88
2022/03/03 04:54:34;;;;;;;9.77;4.10;;;3.40;57.80;;;;;;5020386;28;20174;-88
2022/03/03 04:57:00;;;;;;;7.93;4.25;;;3.40;57.80;;;;;;5000353;28;20017;-88
2022/03/03 04:59:26;;;;;;;8.10;4.17;;;3.40;57.90;;;;;;4985815;28;20502;-88
2022/03/03 05:01:52;;;;;;;8.32;4.47;;;3.40;57.90;;;;;;4993980;28;20112;-88
2022/03/03 05:04:19;;;;;;;8.10;3.97;;;3.30;57.90;;;;;;5020355;28;20028;-88
2022/03/03 05:06:45;;;;;;;6.63;3.70;;;3.30;58.00;;;;;;4985992;28;20022;-88
2022/03/03 05:09:11;;;;;;;8.88;4.43;;;3.30;58.10;;;;;;5017101;28;20543;-88
2022/03/03 05:11:37;;;;;;;8.15;4.53;;;3.30;58.20;;;;;;5018571;28;20033;-88
2022/03/03 05:14:03;;;;;;;9.13;4.30;;;3.30;58.20;;;;;;4996733;28;20029;-88
2022/03/03 05:16:29;;;;;;;8.47;4.13;;;3.20;58.20;;;;;;5013524;28;20061;-88
2022/03/03 05:18:54;;;;;;;8.70;4.73;;;3.20;58.20;;;;;;4997104;28;20036;-88
2022/03/03 05:21:20;;;;;;;8.13;4.20;;;3.20;58.10;;;;;;5011103;28;20648;-88
2022/03/03 05:23:46;;;;;;;8.80;4.40;;;3.20;58.20;;;;;;4997051;28;20355;-88
2022/03/03 05:26:11;;;;;;;7.95;3.95;;;3.10;58.30;;;;;;5000298;28;20037;-88
2022/03/03 05:28:37;;;;;;;9.60;4.77;;;3.20;59.00;;;;;;5000247;28;20057;-88
2022/03/03 05:31:03;;;;;;;9.90;4.18;;;3.10;58.40;;;;;;4977305;28;20269;-88
2022/03/03 05:33:30;;;;;;;8.03;3.83;;;3.10;58.40;;;;;;5011496;28;20427;-88
2022/03/03 05:36:04;;;;;;;8.90;4.50;;;3.10;58.40;;;;;;4996487;28;20183;-88
2022/03/03 05:38:33;;;;;;;7.68;3.90;;;3.10;58.60;;;;;;5011991;28;20080;-88
2022/03/03 05:40:59;;;;;;;10.85;4.30;;;3.10;58.60;;;;;;5015722;28;20034;-88
2022/03/03 05:43:25;;;;;;;8.30;4.13;;;3.10;58.60;;;;;;5015407;28;20026;-88
2022/03/03 05:45:52;;;;;;;7.40;4.20;;;3.00;58.60;;;;;;4982065;28;20048;-88
2022/03/03 05:48:19;;;;;;;8.75;4.20;;;3.00;58.60;;;;;;5002058;28;20033;-88
2022/03/03 05:50:46;;;;;;;11.27;4.60;;;3.00;58.70;;;;;;5015794;28;20029;-88
2022/03/03 05:53:12;;;;;;;8.57;4.18;;;2.90;58.70;;;;;;4983518;28;20198;-88
2022/03/03 05:55:48;;;;;;;7.05;4.10;;;2.90;58.70;;;;;;5018965;28;20481;-88
2022/03/03 05:58:17;;;;;;;8.17;4.23;;;2.90;59.20;;;;;;5011901;28;20150;-88
2022/03/03 06:00:48;;;;;;;7.93;3.63;;;2.90;59.00;;;;;;5002620;28;20377;-89
2022/03/03 06:03:16;;;;;;;7.90;4.10;;;2.80;59.10;;;;;;4977731;28;20021;-88
2022/03/03 06:05:56;;;;;;;7.43;4.10;;;2.80;59.00;;;;;;4993892;28;20518;-88
2022/03/03 06:08:30;;;;;;;7.20;4.20;;;2.80;59.10;;;;;;4984910;28;20036;-88
2022/03/03 06:11:01;;;;;;;6.77;4.10;;;2.80;59.10;;;;;;5005744;28;20025;-88
2022/03/03 06:13:33;;;;;;;7.68;3.50;;;2.80;59.30;;;;;;4994180;28;20091;-88
2022/03/03 06:16:02;;;;;;;8.00;3.85;;;2.70;59.10;;;;;;4987106;28;20021;-89
2022/03/03 06:18:31;;;;;;;9.05;4.38;;;2.70;59.10;;;;;;5007848;28;20041;-89
2022/03/03 06:20:58;;;;;;;7.47;3.95;;;2.70;59.20;;;;;;5002236;28;20392;-88
2022/03/03 06:23:23;;;;;;;9.23;4.47;;;2.70;59.30;;;;;;4987565;28;20034;-89
2022/03/03 06:26:03;;;;;;;7.18;3.33;;;2.60;59.30;;;;;;4997774;28;20435;-88
2022/03/03 06:28:30;;;;;;;9.02;4.43;;;2.60;59.80;;;;;;4998366;28;20049;-89
2022/03/03 06:30:55;;;;;;;10.00;4.13;;;2.60;59.50;;;;;;5022474;28;20350;-88
2022/03/03 06:33:21;;;;;;;6.95;3.85;;;2.60;59.50;;;;;;4976775;28;20559;-89
2022/03/03 06:35:47;;;;;;;8.18;4.43;;;2.60;59.60;;;;;;5008405;28;20057;-89
2022/03/03 06:38:13;;;;;;;8.70;4.10;;;2.60;59.70;;;;;;4990474;28;20084;-89
2022/03/03 06:40:38;;;;;;;9.48;4.65;;;2.60;59.90;;;;;;5002053;28;20026;-89
2022/03/03 06:43:04;;;;;;;10.00;4.30;;;2.50;59.80;;;;;;4983190;28;20289;-89
2022/03/03 06:45:32;;;;;;;8.55;3.97;;;2.50;59.70;;;;;;4993717;28;20025;-89
2022/03/03 06:47:59;;;;;;;8.98;3.97;;;2.50;59.90;;;;;;4998605;28;20040;-89
2022/03/03 06:50:26;;;;;;;9.60;4.50;;;2.50;59.90;;;;;;4992773;28;20029;-89
2022/03/03 06:52:51;;;;;;;8.15;4.32;;;2.50;59.90;;;;;;4989786;28;20030;-89
2022/03/03 06:55:23;;;;;;;6.82;3.88;;;2.50;60.00;;;;;;5012826;28;20485;-89
2022/03/03 06:57:57;;;;;;;7.65;4.20;;;2.50;60.20;;;;;;5002484;28;20060;-89
2022/03/03 07:00:28;;;;;;;7.77;4.30;;;2.60;60.80;;;;;;5001115;28;20478;-89
2022/03/03 07:02:54;;;;;;;8.40;4.05;;;2.60;60.50;;;;;;5005186;28;20073;-89
2022/03/03 07:05:21;;;;;;;8.27;4.38;;;2.60;60.50;;;;;;5017942;28;20160;-89
2022/03/03 07:07:48;;;;;;;8.50;4.50;;;2.60;60.80;;;;;;5005869;28;20075;-89
2022/03/03 07:10:19;;;;;;;9.10;4.63;;;2.70;61.00;;;;;;4984201;28;20041;-88
2022/03/03 07:12:45;;;;;;;8.60;4.60;;;2.80;61.30;;;;;;5000020;28;20037;-88
2022/03/03 07:15:11;;;;;;;8.27;4.50;;;2.90;61.60;;;;;;5011265;28;20513;-88
2022/03/03 07:17:59;;;;;;;8.95;4.72;;;3.10;62.10;;;;;;5013807;28;20540;-89
2022/03/03 07:20:51;;;;;;;6.93;4.13;;;3.30;63.10;;;;;;4996442;28;20033;-88
2022/03/03 07:23:46;;;;;;;7.47;4.28;;;3.50;63.10;;;;;;5012213;28;20042;-88
2022/03/03 07:26:14;;;;;;;9.68;4.07;;;3.80;63.80;;;;;;5007454;28;20083;-88
2022/03/03 07:28:47;;;;;;;7.90;4.15;;;4.10;63.50;;;;;;5019451;28;20041;-88
2022/03/03 07:31:16;;;;;;;7.90;4.32;;;4.40;64.00;;;;;;5021684;28;20108;-88
2022/03/03 07:33:54;;;;;;;8.33;4.20;;;4.80;63.70;;;;;;5000863;28;20028;-88
2022/03/03 07:36:37;;;;;;;7.43;4.40;;;5.20;63.40;;;;;;4971744;28;20437;-88
2022/03/03 07:39:08;;;;;;;6.45;3.83;;;5.40;62.70;;;;;;4994843;28;20017;-88
2022/03/03 07:41:33;;;;;;;6.38;3.70;;;5.70;62.20;;;;;;4976558;28;20029;-88
2022/03/03 07:44:00;;;;;;;7.20;4.17;;;6.00;62.20;;;;;;4976767;28;20302;-88
2022/03/03 07:46:27;;;;;;;6.03;3.80;;;6.30;62.50;;;;;;4991733;28;20040;-88
2022/03/03 07:48:53;;;;;;;7.22;4.30;;;6.60;62.70;;;;;;5004102;28;20310;-88
2022/03/03 07:51:20;;;;;;;6.10;3.87;;;6.90;62.80;;;;;;4983367;28;20428;-88
2022/03/03 07:53:47;;;;;;;7.95;4.45;;;7.30;63.10;;;;;;4978148;28;20037;-88
2022/03/03 07:56:37;;;;;;;6.88;4.00;;;7.70;63.50;;;;;;5015384;28;20029;-88
2022/03/03 07:59:05;;;;;;;5.90;3.70;;;8.20;63.70;;;;;;4998138;28;20022;-88
2022/03/03 08:01:34;;;;;;;6.38;4.22;;;8.70;64.20;;;;;;5000065;28;20026;-88
2022/03/03 08:04:01;;;;;;;7.33;4.80;;;9.20;64.10;;;;;;4989634;28;20045;-88
2022/03/03 08:06:28;;;;;;;6.50;4.60;;;9.80;64.10;;;;;;4999272;28;21519;-88
2022/03/03 08:08:58;;;;;;;8.80;5.35;;;10.30;64.80;;;;;;4976958;28;20068;-89
2022/03/03 08:11:26;;;;;;;8.85;5.78;;;10.80;64.40;;;;;;4982304;28;20056;-88
2022/03/03 08:13:52;;;;;;;9.05;5.97;;;11.30;63.50;;;;;;4983696;28;20026;-88
2022/03/03 08:16:19;;;;;;;9.00;5.53;;;11.80;63.50;;;;;;5001668;28;20045;-88
2022/03/03 08:18:47;;;;;;;9.40;5.85;;;12.30;62.90;;;;;;5008519;28;20243;-88
2022/03/03 08:21:14;;;;;;;9.52;5.90;;;12.80;62.30;;;;;;4996995;28;20053;-88
2022/03/03 08:23:40;;;;;;;9.25;5.88;;;13.20;62.30;;;;;;4990541;28;20100;-88
2022/03/03 08:26:06;;;;;;;11.63;6.07;;;13.60;61.50;;;;;;4995401;28;20579;-88
2022/03/03 08:28:32;;;;;;;10.17;6.17;;;13.90;60.50;;;;;;4978756;28;20045;-88
2022/03/03 08:31:04;;;;;;;9.20;5.93;;;14.30;60.00;;;;;;4992676;28;20108;-88
2022/03/03 08:34:12;;;;;;;10.45;6.13;;;14.60;58.40;;;;;;5005017;28;20330;-88
2022/03/03 08:36:49;;;;;;;9.63;5.88;;;14.80;58.80;;;;;;4919794;28;20217;-88
2022/03/03 08:39:18;;;;;;;10.07;6.00;;;15.20;57.20;;;;;;4989429;28;20038;-88
2022/03/03 08:41:44;;;;;;;8.90;5.53;;;15.40;57.50;;;;;;5016786;28;20512;-88
2022/03/03 08:44:11;;;;;;;10.45;5.80;;;15.60;57.20;;;;;;4983614;28;20065;-88
2022/03/03 08:46:41;;;;;;;9.60;5.55;;;15.70;56.60;;;;;;5016891;28;20034;-89
2022/03/03 08:49:08;;;;;;;9.43;6.05;;;15.90;56.10;;;;;;5016666;28;20298;-89
2022/03/03 08:51:35;;;;;;;8.97;5.77;;;16.10;56.10;;;;;;4997054;28;20614;-89
2022/03/03 08:54:01;;;;;;;8.77;5.43;;;16.30;56.20;;;;;;4982199;28;20452;-89
2022/03/03 08:56:26;;;;;;;8.00;5.25;;;16.50;56.20;;;;;;4977848;28;20022;-89
2022/03/03 08:58:53;;;;;;;8.90;5.33;;;16.80;56.40;;;;;;4996137;28;20030;-88
2022/03/03 09:01:19;;;;;;;8.48;5.63;;;17.10;56.00;;;;;;4997951;28;20088;-89
2022/03/03 09:03:45;;;;;;;8.07;5.30;;;17.40;55.40;;;;;;5001340;28;20409;-89
2022/03/03 09:06:16;;;;;;;9.30;6.03;;;17.60;55.40;;;;;;5018488;28;20469;-89
2022/03/03 09:08:41;;;;;;;7.90;5.03;;;17.80;53.70;;;;;;5017492;28;20541;-86
2022/03/03 09:11:07;;;;;;;9.10;5.47;;;18.10;54.50;;;;;;4986299;28;20041;-86
2022/03/03 09:13:33;;;;;;;9.90;5.63;;;18.30;53.80;;;;;;4986796;28;20043;-86
2022/03/03 09:15:59;;;;;;;8.40;5.70;;;18.50;52.80;;;;;;5017981;28;20029;-86
2022/03/03 09:18:25;;;;;;;8.30;5.43;;;18.70;52.30;;;;;;4995054;28;20380;-86
2022/03/03 09:20:50;;;;;;;9.40;5.47;;;18.90;51.80;;;;;;4998987;28;20037;-87
2022/03/03 09:23:16;;;;;;;8.07;5.43;;;19.00;51.50;;;;;;5000696;28;20040;-87
2022/03/03 09:25:43;;;;;;;7.45;5.25;;;19.30;51.20;;;;;;5000721;28;20414;-86
2022/03/03 09:28:09;;;;;;;7.60;5.03;;;19.50;51.30;;;;;;4979815;28;20045;-86
2022/03/03 09:30:36;;;;;;;8.57;5.25;;;19.70;50.70;;;;;;4981186;28;20030;-87
2022/03/03 09:33:04;;;;;;;7.50;5.25;;;19.90;50.30;;;;;;5003685;28;20425;-86
2022/03/03 09:35:30;;;;;;;7.05;4.90;;;20.20;50.10;;;;;;4998936;28;20068;-86
2022/03/03 09:37:56;;;;;;;7.32;4.72;;;20.40;49.90;;;;;;4984204;28;20359;-86
2022/03/03 09:40:22;;;;;;;7.93;5.47;;;20.70;50.00;;;;;;4995030;28;20037;-86
2022/03/03 09:43:03;;;;;;;8.68;5.53;;;21.00;49.10;;;;;;4993927;28;20049;-86
2022/03/03 09:45:29;;;;;;;8.05;5.72;;;21.20;47.80;;;;;;4982336;28;21326;-87
2022/03/03 09:47:56;;;;;;;7.35;5.10;;;21.50;48.10;;;;;;5021086;28;20034;-87
2022/03/03 09:50:24;;;;;;;9.63;6.10;;;21.70;47.70;;;;;;4995725;28;20029;-87
2022/03/03 09:52:50;;;;;;;10.10;6.25;;;21.90;47.00;;;;;;4987602;28;20079;-86
2022/03/03 09:55:16;;;;;;;8.32;5.55;;;22.10;46.60;;;;;;5006288;28;20258;-86
2022/03/03 09:57:42;;;;;;;8.50;6.38;;;22.30;46.20;;;;;;4974524;28;20032;-86
2022/03/03 10:00:11;;;;;;;8.77;6.37;;;22.50;45.60;;;;;;4986607;28;20024;-87
2022/03/03 10:02:58;;;;;;;8.60;6.15;;;22.60;44.60;;;;;;5001593;28;20021;-86
2022/03/03 10:05:35;;;;;;;9.18;6.85;;;22.80;41.70;;;;;;4993531;28;20595;-86
2022/03/03 10:08:04;;;;;;;8.05;5.90;;;22.90;43.10;;;;;;5016815;28;20041;-85
2022/03/03 10:10:31;;;;;;;8.68;6.20;;;23.00;43.30;;;;;;5003887;28;20211;-86
2022/03/03 10:12:57;;;;;;;9.67;6.90;;;23.00;43.10;;;;;;4997313;28;20025;-86
2022/03/03 10:15:31;;;;;;;9.45;6.70;;;23.00;41.70;;;;;;5001795;28;20029;-85
2022/03/03 10:18:09;;;;;;;10.95;7.03;;;23.00;41.40;;;;;;5003333;28;20026;-86
2022/03/03 10:20:38;;;;;;;10.38;7.85;;;22.90;40.90;;;;;;5022076;28;20094;-85
2022/03/03 10:23:08;;;;;;;9.65;7.15;;;22.80;40.10;;;;;;5016799;28;20044;-87
2022/03/03 10:25:37;;;;;;;10.17;6.73;;;22.70;39.90;;;;;;5016390;28;20013;-86
2022/03/03 10:28:25;;;;;;;10.27;7.07;;;22.70;40.70;;;;;;4979546;28;20160;-87
2022/03/03 10:31:08;;;;;;;10.63;7.00;;;22.80;39.60;;;;;;4997441;28;20465;-87
2022/03/03 10:33:40;;;;;;;9.02;6.63;;;22.90;40.60;;;;;;4999754;28;20486;-86
2022/03/03 10:36:25;;;;;;;9.50;6.88;;;23.00;40.70;;;;;;5010079;28;20029;-86
2022/03/03 10:39:03;;;;;;;8.83;6.90;;;23.20;41.50;;;;;;5015765;28;20041;-86
2022/03/03 10:41:28;;;;;;;8.32;6.30;;;23.50;40.60;;;;;;4991863;28;20018;-86
2022/03/03 10:43:54;;;;;;;7.95;5.70;;;23.60;40.80;;;;;;4973509;28;20577;-86
2022/03/03 10:46:20;;;;;;;8.87;6.23;;;23.70;40.50;;;;;;5007946;28;20021;-86
2022/03/03 10:48:45;;;;;;;8.80;6.57;;;23.90;40.00;;;;;;4994592;28;20025;-86
2022/03/03 10:51:14;;;;;;;8.70;6.47;;;23.90;39.70;;;;;;4999972;28;20022;-87
2022/03/03 10:53:42;;;;;;;10.10;7.07;;;24.10;39.30;;;;;;4999812;28;20072;-86
2022/03/03 10:56:14;;;;;;;11.10;6.53;;;24.20;39.20;;;;;;4984569;28;20054;-86
2022/03/03 10:58:57;;;;;;;8.85;6.82;;;24.40;38.50;;;;;;4990914;28;20030;-87
2022/03/03 11:01:30;;;;;;;8.18;6.30;;;24.60;37.20;;;;;;4987273;28;20053;-86
2022/03/03 11:03:57;;;;;;;8.30;6.37;;;24.70;37.90;;;;;;4985287;28;20030;-86
2022/03/03 11:06:30;;;;;;;10.02;7.00;;;24.90;38.60;;;;;;4992633;28;20022;-86
2022/03/03 11:08:59;;;;;;;9.55;7.60;;;25.00;36.30;;;;;;5010572;28;20029;-86
2022/03/03 11:11:25;;;;;;;9.13;6.65;;;24.90;36.40;;;;;;5000875;28;20726;-86
2022/03/03 11:13:52;;;;;;;8.50;6.28;;;25.00;36.90;;;;;;4987306;28;20140;-86
2022/03/03 11:16:23;;;;;;;8.03;6.03;;;25.00;36.30;;;;;;4995724;28;20029;-87
2022/03/03 11:18:50;;;;;;;8.85;6.75;;;25.00;36.80;;;;;;5009940;28;20506;-87
2022/03/03 11:21:16;;;;;;;8.40;6.38;;;25.00;36.70;;;;;;5000175;28;20037;-86
2022/03/03 11:23:44;;;;;;;8.93;6.47;;;25.20;36.80;;;;;;5003945;28;20104;-86
2022/03/03 11:26:30;;;;;;;9.45;6.70;;;25.30;36.90;;;;;;4999359;28;20033;-86
2022/03/03 11:29:17;;;;;;;8.37;6.23;;;25.50;36.00;;;;;;5014448;28;20188;-85
2022/03/03 11:31:45;;;;;;;8.60;6.82;;;25.70;36.00;;;;;;5003308;28;20328;-87
2022/03/03 11:34:39;;;;;;;8.70;6.22;;;25.80;35.80;;;;;;5021976;28;20041;-86
2022/03/03 11:37:21;;;;;;;9.43;7.00;;;25.80;35.60;;;;;;5013320;28;20026;-86
2022/03/03 11:40:01;;;;;;;9.50;6.75;;;25.90;34.50;;;;;;4991542;28;20025;-86
2022/03/03 11:42:45;;;;;;;9.70;6.43;;;26.10;33.90;;;;;;4997740;28;20389;-86
2022/03/03 11:45:14;;;;;;;9.50;6.78;;;26.20;34.70;;;;;;4995132;28;20092;-86
2022/03/03 11:47:47;;;;;;;9.57;7.10;;;26.20;34.80;;;;;;4980123;28;20037;-87
2022/03/03 11:50:23;;;;;;;9.27;6.35;;;26.10;33.60;;;;;;5011751;28;20018;-86
2022/03/03 11:52:57;;;;;;;9.32;6.85;;;26.10;33.30;;;;;;5000693;28;20640;-86
2022/03/03 11:55:33;;;;;;;8.63;5.87;;;26.10;33.60;;;;;;5003274;28;20041;-86
2022/03/03 11:58:07;;;;;;;8.45;6.43;;;26.10;33.80;;;;;;5015040;28;20479;-86
2022/03/03 12:01:05;;;;;;;9.63;6.82;;;26.10;33.50;;;;;;5003294;28;20453;-86
2022/03/03 12:03:33;;;;;;;9.70;6.68;;;26.20;32.90;;;;;;5008435;28;20026;-86
2022/03/03 12:06:13;;;;;;;8.57;6.63;;;26.20;33.30;;;;;;5000154;28;20049;-86
2022/03/03 12:08:43;;;;;;;10.13;6.47;;;26.30;33.40;;;;;;4983633;28;20088;-86
2022/03/03 12:11:10;;;;;;;10.45;7.30;;;26.30;33.20;;;;;;5020335;28;20056;-86
2022/03/03 12:13:39;;;;;;;9.65;7.05;;;26.40;33.20;;;;;;5011720;28;20033;-86
2022/03/03 12:16:12;;;;;;;8.50;6.13;;;26.50;32.90;;;;;;5021236;28;20040;-86
2022/03/03 12:18:38;;;;;;;9.85;6.10;;;26.60;32.40;;;;;;5016084;28;20147;-86
2022/03/03 12:21:43;;;;;;;7.97;6.00;;;26.70;33.00;;;;;;5002563;28;20034;-86
2022/03/03 12:24:14;;;;;;;8.68;6.53;;;26.70;32.30;;;;;;4974340;28;20091;-86
2022/03/03 12:29:39;;;;;;;9.10;6.22;;;26.70;30.90;;;;;;5019589;28;20569;-86
2022/03/03 12:32:27;;;;;;;8.88;6.10;;;26.60;30.40;;;;;;4981500;28;20034;-86
2022/03/03 12:35:00;;;;;;;8.77;6.17;;;26.60;30.90;;;;;;4984096;28;20420;-86
2022/03/03 12:37:26;;;;;;;7.35;5.38;;;26.70;31.90;;;;;;4981343;28;20116;-86
2022/03/03 12:39:54;;;;;;;7.80;5.63;;;26.80;32.40;;;;;;4993991;28;20041;-86
2022/03/03 12:42:24;;;;;;;8.60;5.85;;;26.90;31.80;;;;;;4999762;28;20113;-86
2022/03/03 12:44:51;;;;;;;7.33;5.47;;;27.00;31.70;;;;;;4993682;28;20659;-86
2022/03/03 12:47:18;;;;;;;9.15;6.32;;;27.00;31.40;;;;;;5002562;28;20076;-86
2022/03/03 12:49:48;;;;;;;7.22;5.32;;;27.10;31.20;;;;;;4988262;28;20230;-86
2022/03/03 12:52:13;;;;;;;9.20;6.85;;;27.20;30.80;;;;;;4987111;28;20061;-86
2022/03/03 12:54:39;;;;;;;8.60;6.47;;;27.20;30.90;;;;;;4983402;28;20116;-86
2022/03/03 12:57:05;;;;;;;8.40;5.95;;;27.20;30.90;;;;;;4999470;28;20048;-86
2022/03/03 12:59:31;;;;;;;9.87;6.40;;;27.20;30.30;;;;;;5008577;28;20501;-86
2022/03/03 13:01:58;;;;;;;9.60;6.80;;;27.20;30.10;;;;;;4987000;28;20533;-86
2022/03/03 13:04:24;;;;;;;8.90;6.70;;;27.20;29.60;;;;;;4998456;28;20034;-86
2022/03/03 13:07:05;;;;;;;9.32;5.95;;;27.00;29.60;;;;;;4984642;28;20033;-86